Time;durP1;ratioP1;P1;durP2;ratioP2;P2;SDS_P1;SDS_P2;PMS_P1;PMS_P2;Temp;Humidity;BMP_temperature;BMP_pressure;BME280_temperature;BME280_humidity;BME280_pressure;Samples;Min_cycle;Max_cycle;Signal;HPM_P1;HPM_P2
2022/10/26 00:01:26;;;;;;;5.57;3.53;;;;;;;-144.59;100.00;63158.22;4965754;28;20255;-81
2022/10/26 00:04:10;;;;;;;7.60;4.00;;;;;;;-144.59;100.00;63158.22;4961295;28;20257;-82
2022/10/26 00:06:45;;;;;;;8.13;4.00;;;;;;;-144.59;100.00;63158.22;4973528;28;20238;-82
2022/10/26 00:09:18;;;;;;;7.53;4.00;;;;;;;-144.59;100.00;63158.22;4966153;28;20200;-82
2022/10/26 00:11:48;;;;;;;6.37;3.80;;;;;;;-144.59;100.00;63158.22;4989888;28;20193;-82
2022/10/26 00:14:19;;;;;;;8.60;3.63;;;;;;;-144.59;100.00;63158.22;5044798;28;20205;-82
2022/10/26 00:16:55;;;;;;;9.67;3.67;;;;;;;-144.59;100.00;63158.22;5048946;28;20204;-82
2022/10/26 00:19:25;;;;;;;6.67;3.83;;;;;;;-144.59;100.00;63158.22;4985592;28;20749;-82
2022/10/26 00:21:59;;;;;;;6.83;3.73;;;;;;;-144.59;100.00;63158.22;5003791;28;20670;-82
2022/10/26 00:24:30;;;;;;;5.93;4.00;;;;;;;-144.59;100.00;63158.22;4979685;28;20242;-82
2022/10/26 00:27:00;;;;;;;7.87;3.43;;;;;;;-144.59;100.00;63158.22;5025552;28;20232;-82
2022/10/26 00:29:31;;;;;;;7.63;4.10;;;;;;;-144.59;100.00;63158.22;5024794;28;20201;-82
2022/10/26 00:32:00;;;;;;;6.07;3.80;;;;;;;-144.59;100.00;63158.22;5029553;28;20206;-82
2022/10/26 00:34:30;;;;;;;8.87;4.07;;;;;;;-144.59;100.00;63158.22;5026649;28;20221;-82
2022/10/26 00:37:02;;;;;;;11.67;4.30;;;;;;;-144.59;100.00;63158.22;4983114;28;20201;-82
2022/10/26 00:39:40;;;;;;;7.00;4.17;;;;;;;-144.59;100.00;63158.22;4970754;28;20199;-82
2022/10/26 00:42:19;;;;;;;4.80;4.20;;;;;;;-144.59;100.00;63158.22;4967645;28;20191;-82
2022/10/26 00:45:01;;;;;;;7.93;4.03;;;;;;;-144.59;100.00;63158.22;4968392;28;20230;-82
2022/10/26 00:47:37;;;;;;;8.50;4.20;;;;;;;-144.59;100.00;63158.22;4971646;28;20262;-82
2022/10/26 00:50:19;;;;;;;7.03;4.20;;;;;;;-144.59;100.00;63158.22;4968749;28;20203;-83
2022/10/26 00:52:54;;;;;;;4.90;3.90;;;;;;;-144.59;100.00;63158.22;4951930;28;20189;-82
2022/10/26 00:55:29;;;;;;;5.30;3.53;;;;;;;-144.59;100.00;63158.22;4944459;28;20275;-82
2022/10/26 00:58:04;;;;;;;4.67;3.90;;;;;;;-144.59;100.00;63158.22;4960371;28;20254;-82
2022/10/26 01:00:33;;;;;;;7.13;3.77;;;;;;;-144.59;100.00;63158.22;4970060;28;20341;-82
2022/10/26 01:03:06;;;;;;;4.50;3.57;;;;;;;-144.59;100.00;63158.22;4964791;28;20215;-83
2022/10/26 01:05:37;;;;;;;8.10;4.20;;;;;;;-144.59;100.00;63158.22;4950161;28;20236;-82
2022/10/26 01:08:11;;;;;;;9.80;4.30;;;;;;;-144.59;100.00;63158.22;4948802;28;20696;-82
2022/10/26 01:10:44;;;;;;;6.17;4.00;;;;;;;-144.59;100.00;63158.22;4959905;28;20195;-82
2022/10/26 01:13:15;;;;;;;7.23;4.13;;;;;;;-144.59;100.00;63158.22;4990472;28;20207;-82
2022/10/26 01:15:51;;;;;;;5.97;3.87;;;;;;;-144.59;100.00;63158.22;4983088;28;20223;-82
2022/10/26 01:18:27;;;;;;;5.73;3.30;;;;;;;-144.59;100.00;63158.22;4982838;28;20199;-83
2022/10/26 01:21:24;;;;;;;6.10;3.70;;;;;;;-144.59;100.00;63158.22;4994828;28;20276;-82
2022/10/26 01:24:22;;;;;;;5.60;3.53;;;;;;;-144.59;100.00;63158.22;4937168;28;20236;-82
2022/10/26 01:27:14;;;;;;;5.30;3.60;;;;;;;-144.59;100.00;63158.22;4922787;29;20268;-84
2022/10/26 01:30:13;;;;;;;5.37;4.23;;;;;;;-144.59;100.00;63158.22;4952808;28;20228;-82
2022/10/26 01:33:20;;;;;;;5.30;3.83;;;;;;;-144.59;100.00;63158.22;4937589;28;20200;-82
2022/10/26 01:36:02;;;;;;;7.17;4.20;;;;;;;-144.59;100.00;63158.22;4937291;28;20196;-83
2022/10/26 01:38:53;;;;;;;6.87;4.67;;;;;;;-144.59;100.00;63158.22;4950310;28;20197;-82
2022/10/26 01:41:33;;;;;;;6.43;4.23;;;;;;;-144.59;100.00;63158.22;4951566;28;20699;-82
2022/10/26 01:44:09;;;;;;;6.37;4.07;;;;;;;-144.59;100.00;63158.22;4948624;28;20196;-82
2022/10/26 01:46:45;;;;;;;7.17;4.13;;;;;;;-144.59;100.00;63158.22;4954842;28;20207;-82
2022/10/26 01:49:20;;;;;;;5.67;3.67;;;;;;;-144.59;100.00;63158.22;5029248;28;20205;-83
2022/10/26 01:51:58;;;;;;;8.00;3.50;;;;;;;-144.59;100.00;63158.22;5047867;28;20208;-82
2022/10/26 01:54:29;;;;;;;7.80;3.60;;;;;;;-144.59;100.00;63158.22;5028020;28;20197;-82
2022/10/26 01:57:11;;;;;;;7.53;3.87;;;;;;;-144.59;100.00;63158.22;5024351;28;20240;-83
2022/10/26 02:00:07;;;;;;;6.83;4.03;;;;;;;-144.59;100.00;63158.22;5028822;28;20205;-82
2022/10/26 02:02:56;;;;;;;3.90;3.10;;;;;;;-144.59;100.00;63158.22;5029957;28;20214;-84
2022/10/26 02:06:01;;;;;;;4.90;3.33;;;;;;;-144.59;100.00;63158.22;4990913;28;20195;-82
2022/10/26 02:08:56;;;;;;;6.53;3.60;;;;;;;-144.59;100.00;63158.22;4968358;28;20353;-82
2022/10/26 02:11:36;;;;;;;6.67;3.47;;;;;;;-144.59;100.00;63158.22;4964449;28;20204;-83
2022/10/26 02:14:12;;;;;;;10.13;3.83;;;;;;;-144.59;100.00;63158.22;4967278;28;20272;-82
2022/10/26 02:16:57;;;;;;;6.33;3.53;;;;;;;-144.59;100.00;63158.22;4911438;29;20208;-83
2022/10/26 02:19:36;;;;;;;10.30;3.63;;;;;;;-144.59;100.00;63158.22;4896112;29;20190;-82
2022/10/26 02:22:16;;;;;;;7.27;3.73;;;;;;;-144.59;100.00;63158.22;4887520;29;20237;-82
2022/10/26 02:24:51;;;;;;;6.07;3.30;;;;;;;-144.59;100.00;63158.22;4906433;29;20205;-82
2022/10/26 02:27:28;;;;;;;7.43;3.50;;;;;;;-144.59;100.00;63158.22;4908820;29;20198;-82
2022/10/26 02:29:59;;;;;;;7.93;3.70;;;;;;;-144.59;100.00;63158.22;4909282;29;20193;-82
2022/10/26 02:32:34;;;;;;;6.53;3.93;;;;;;;-144.59;100.00;63158.22;4912053;29;20201;-83
2022/10/26 02:35:09;;;;;;;7.83;4.90;;;;;;;-144.59;100.00;63158.22;4940999;28;20211;-83
2022/10/26 02:37:41;;;;;;;11.50;5.57;;;;;;;-144.59;100.00;63158.22;4967052;28;20204;-83
2022/10/26 02:40:14;;;;;;;9.60;3.73;;;;;;;-144.59;100.00;63158.22;4968342;28;20215;-82
2022/10/26 02:42:47;;;;;;;8.53;3.80;;;;;;;-144.59;100.00;63158.22;4975865;28;20794;-82
2022/10/26 02:45:21;;;;;;;5.47;3.30;;;;;;;-144.59;100.00;63158.22;4914730;29;20213;-82
2022/10/26 02:47:52;;;;;;;7.57;3.30;;;;;;;-144.59;100.00;63158.22;4916432;29;20210;-82
2022/10/26 02:50:31;;;;;;;5.33;3.70;;;;;;;-144.59;100.00;63158.22;4897573;29;20751;-82
2022/10/26 02:53:14;;;;;;;5.07;3.07;;;;;;;-144.59;100.00;63158.22;4925345;29;20208;-82
2022/10/26 02:55:48;;;;;;;7.97;3.80;;;;;;;-144.59;100.00;63158.22;4955027;28;20696;-83
2022/10/26 02:58:25;;;;;;;6.57;3.73;;;;;;;-144.59;100.00;63158.22;4950626;28;20204;-82
2022/10/26 03:00:57;;;;;;;6.50;3.07;;;;;;;-144.59;100.00;63158.22;4935347;29;20216;-82
2022/10/26 03:03:28;;;;;;;6.20;3.30;;;;;;;-144.59;100.00;63158.22;4943714;28;20244;-82
2022/10/26 03:06:01;;;;;;;6.47;3.50;;;;;;;-144.59;100.00;63158.22;4948211;28;20205;-82
2022/10/26 03:08:38;;;;;;;6.80;3.87;;;;;;;-144.59;100.00;63158.22;4988223;28;20248;-82
2022/10/26 03:11:07;;;;;;;8.60;4.70;;;;;;;-144.59;100.00;63158.22;4909948;28;20199;-83
2022/10/26 03:13:36;;;;;;;7.30;3.67;;;;;;;-144.59;100.00;63158.22;4945900;28;20272;-82
2022/10/26 03:16:10;;;;;;;10.93;3.90;;;;;;;-144.59;100.00;63158.22;4934005;29;20189;-83
2022/10/26 03:18:42;;;;;;;7.20;3.80;;;;;;;-144.59;100.00;63158.22;4927781;29;20197;-82
2022/10/26 03:21:15;;;;;;;8.93;3.87;;;;;;;-144.59;100.00;63158.22;4930583;29;20232;-83
2022/10/26 03:23:49;;;;;;;5.13;3.60;;;;;;;-144.59;100.00;63158.22;4934633;29;20256;-83
2022/10/26 03:26:18;;;;;;;6.20;3.37;;;;;;;-144.59;100.00;63158.22;4933932;29;20200;-82
2022/10/26 03:28:50;;;;;;;8.20;3.73;;;;;;;-144.59;100.00;63158.22;4949978;28;20203;-82
2022/10/26 03:31:21;;;;;;;4.97;3.10;;;;;;;-144.59;100.00;63158.22;5006318;28;20685;-82
2022/10/26 03:34:01;;;;;;;8.30;3.67;;;;;;;-144.59;100.00;63158.22;5026254;28;20200;-82
2022/10/26 03:36:33;;;;;;;6.13;3.53;;;;;;;-144.59;100.00;63158.22;5067550;28;20230;-82
2022/10/26 03:39:04;;;;;;;7.73;3.27;;;;;;;-144.59;100.00;63158.22;5070089;28;20689;-83
2022/10/26 03:41:34;;;;;;;6.07;3.30;;;;;;;-144.59;100.00;63158.22;5065617;28;20286;-83
2022/10/26 03:44:06;;;;;;;7.37;3.53;;;;;;;-144.59;100.00;63158.22;5067189;28;20705;-83
2022/10/26 03:46:35;;;;;;;7.30;3.13;;;;;;;-144.59;100.00;63158.22;5070494;28;20195;-82
2022/10/26 03:49:07;;;;;;;6.00;3.07;;;;;;;-144.59;100.00;63158.22;5063922;28;20212;-83
2022/10/26 03:51:39;;;;;;;7.07;3.57;;;;;;;-144.59;100.00;63158.22;5022449;28;20227;-82
2022/10/26 03:54:10;;;;;;;9.17;3.07;;;;;;;-144.59;100.00;63158.22;4971558;28;20307;-83
2022/10/26 03:56:41;;;;;;;8.43;3.40;;;;;;;-144.59;100.00;63158.22;4966725;28;20199;-83
2022/10/26 03:59:19;;;;;;;7.03;3.43;;;;;;;-144.59;100.00;63158.22;4967643;28;20683;-83
2022/10/26 04:01:51;;;;;;;10.03;4.00;;;;;;;-144.59;100.00;63158.22;4954119;29;20247;-82
2022/10/26 04:04:25;;;;;;;6.50;3.43;;;;;;;-144.59;100.00;63158.22;4948383;29;20202;-83
2022/10/26 04:06:57;;;;;;;5.63;3.20;;;;;;;-144.59;100.00;63158.22;4950797;29;20200;-82
2022/10/26 04:09:27;;;;;;;5.87;2.97;;;;;;;-144.59;100.00;63158.22;4881197;29;20199;-83
2022/10/26 04:11:56;;;;;;;6.37;3.07;;;;;;;-144.59;100.00;63158.22;4900559;29;20301;-83
2022/10/26 04:14:27;;;;;;;5.70;2.90;;;;;;;-144.59;100.00;63158.22;4891792;29;20210;-82
2022/10/26 04:16:58;;;;;;;7.50;3.47;;;;;;;-144.59;100.00;63158.22;4899684;29;20206;-83
2022/10/26 04:19:29;;;;;;;5.63;3.20;;;;;;;-144.59;100.00;63158.22;4921023;28;20748;-82
2022/10/26 04:21:58;;;;;;;5.27;3.40;;;;;;;-144.59;100.00;63158.22;4971405;28;20299;-82
2022/10/26 04:24:35;;;;;;;6.03;3.57;;;;;;;-144.59;100.00;63158.22;4921576;28;20296;-83
2022/10/26 04:27:06;;;;;;;10.13;3.77;;;;;;;-144.59;100.00;63158.22;4979133;28;20202;-81
2022/10/26 04:29:43;;;;;;;10.40;3.63;;;;;;;-144.59;100.00;63158.22;4952954;28;20189;-82
2022/10/26 04:32:11;;;;;;;7.53;3.03;;;;;;;-144.59;100.00;63158.22;4948312;28;20211;-82
2022/10/26 04:34:42;;;;;;;6.50;3.50;;;;;;;-144.59;100.00;63158.22;4949110;28;20673;-82
2022/10/26 04:37:15;;;;;;;4.87;3.17;;;;;;;-144.59;100.00;63158.22;4960912;28;20210;-83
2022/10/26 04:39:48;;;;;;;7.53;3.80;;;;;;;-144.59;100.00;63158.22;4990810;28;20238;-82
2022/10/26 04:42:18;;;;;;;10.93;8.67;;;;;;;-144.59;100.00;63158.22;4932724;29;20217;-82
2022/10/26 04:44:49;;;;;;;7.77;5.20;;;;;;;-144.59;100.00;63158.22;4925252;29;20201;-83
2022/10/26 04:47:18;;;;;;;11.47;6.00;;;;;;;-144.59;100.00;63158.22;4943848;28;20250;-82
2022/10/26 04:49:49;;;;;;;6.00;4.23;;;;;;;-144.59;100.00;63158.22;4985724;28;20211;-83
2022/10/26 04:52:19;;;;;;;7.27;3.90;;;;;;;-144.59;100.00;63158.22;4933002;29;20197;-82
2022/10/26 04:55:00;;;;;;;5.27;2.97;;;;;;;-144.59;100.00;63158.22;4916322;29;20205;-82
2022/10/26 04:57:33;;;;;;;6.87;2.93;;;;;;;-144.59;100.00;63158.22;4905357;29;20244;-83
2022/10/26 05:00:10;;;;;;;7.73;3.53;;;;;;;-144.59;100.00;63158.22;4914705;29;20249;-82
2022/10/26 05:02:46;;;;;;;5.17;3.50;;;;;;;-144.59;100.00;63158.22;4857391;29;20219;-82
2022/10/26 05:05:24;;;;;;;6.93;3.07;;;;;;;-144.59;100.00;63158.22;4853059;29;20203;-82
2022/10/26 05:07:55;;;;;;;9.57;3.30;;;;;;;-144.59;100.00;63158.22;4884392;29;20210;-82
2022/10/26 05:10:32;;;;;;;7.03;3.30;;;;;;;-144.59;100.00;63158.22;4890976;29;20198;-83
2022/10/26 05:13:02;;;;;;;8.73;3.10;;;;;;;-144.59;100.00;63158.22;4849999;29;20207;-82
2022/10/26 05:15:37;;;;;;;10.27;3.60;;;;;;;-144.59;100.00;63158.22;4875483;29;20282;-83
2022/10/26 05:18:07;;;;;;;6.30;3.13;;;;;;;-144.59;100.00;63158.22;4910987;29;20276;-82
2022/10/26 05:20:37;;;;;;;7.23;3.30;;;;;;;-144.59;100.00;63158.22;4915523;29;20225;-82
2022/10/26 05:23:17;;;;;;;6.53;3.33;;;;;;;-144.59;100.00;63158.22;4928073;29;20224;-82
2022/10/26 05:25:47;;;;;;;8.67;3.40;;;;;;;-144.59;100.00;63158.22;4932255;29;20196;-83
2022/10/26 05:28:19;;;;;;;7.47;3.40;;;;;;;-144.59;100.00;63158.22;4925978;29;20193;-83
2022/10/26 05:30:49;;;;;;;8.43;3.50;;;;;;;-144.59;100.00;63158.22;4953603;28;20250;-83
2022/10/26 05:33:27;;;;;;;6.83;3.33;;;;;;;-144.59;100.00;63158.22;5006725;28;20248;-83
2022/10/26 05:35:55;;;;;;;7.40;3.57;;;;;;;-144.59;100.00;63158.22;5005039;28;20225;-83
2022/10/26 05:38:24;;;;;;;7.83;4.23;;;;;;;-144.59;100.00;63158.22;4999732;28;20198;-83
2022/10/26 05:41:00;;;;;;;8.63;3.40;;;;;;;-144.59;100.00;63158.22;5006771;28;20194;-83
2022/10/26 05:43:29;;;;;;;4.60;3.20;;;;;;;-144.59;100.00;63158.22;5022138;28;20264;-83
2022/10/26 05:45:57;;;;;;;10.10;3.37;;;;;;;-144.59;100.00;63158.22;5042490;28;20646;-83
2022/10/26 05:48:27;;;;;;;7.20;2.87;;;;;;;-144.59;100.00;63158.22;5089053;28;20194;-83
2022/10/26 05:50:59;;;;;;;8.07;3.53;;;;;;;-144.59;100.00;63158.22;5081920;28;20226;-82
2022/10/26 05:53:30;;;;;;;8.77;3.30;;;;;;;-144.59;100.00;63158.22;4991938;28;20214;-83
2022/10/26 05:56:03;;;;;;;7.43;3.43;;;;;;;-144.59;100.00;63158.22;4935942;28;20261;-83
2022/10/26 05:58:40;;;;;;;6.97;3.63;;;;;;;-144.59;100.00;63158.22;4987089;28;20206;-83
2022/10/26 06:01:17;;;;;;;11.23;3.47;;;;;;;-144.59;100.00;63158.22;4984583;28;20198;-83
2022/10/26 06:04:01;;;;;;;8.30;3.90;;;;;;;-144.59;100.00;63158.22;4987080;28;20227;-82
2022/10/26 06:06:37;;;;;;;5.83;3.50;;;;;;;-144.59;100.00;63158.22;4986999;28;20199;-83
2022/10/26 06:09:11;;;;;;;6.77;4.10;;;;;;;-144.59;100.00;63158.22;4991877;28;20187;-82
2022/10/26 06:11:43;;;;;;;9.53;4.47;;;;;;;-144.59;100.00;63158.22;5035650;28;20188;-83
2022/10/26 06:14:15;;;;;;;8.40;4.40;;;;;;;-144.59;100.00;63158.22;5087728;28;20672;-83
2022/10/26 06:17:01;;;;;;;9.17;4.23;;;;;;;-144.59;100.00;63158.22;5083015;28;20282;-83
2022/10/26 06:19:46;;;;;;;6.80;3.47;;;;;;;-144.59;100.00;63158.22;5009759;28;20209;-83
2022/10/26 06:22:28;;;;;;;10.93;3.73;;;;;;;-144.59;100.00;63158.22;5004769;28;20217;-83
2022/10/26 06:25:10;;;;;;;10.20;3.30;;;;;;;-144.59;100.00;63158.22;5005786;28;20291;-83
2022/10/26 06:27:46;;;;;;;6.27;3.40;;;;;;;-144.59;100.00;63158.22;5003679;28;20194;-83
2022/10/26 06:30:16;;;;;;;6.93;3.50;;;;;;;-144.59;100.00;63158.22;5010028;28;20209;-83
2022/10/26 06:32:49;;;;;;;7.07;3.37;;;;;;;-144.59;100.00;63158.22;5011202;28;20202;-84
2022/10/26 06:35:41;;;;;;;7.03;3.60;;;;;;;-144.59;100.00;63158.22;5009085;28;20198;-83
2022/10/26 06:38:16;;;;;;;6.60;3.43;;;;;;;-144.59;100.00;63158.22;5064012;28;20275;-83
2022/10/26 06:40:48;;;;;;;7.83;3.43;;;;;;;-144.59;100.00;63158.22;5082562;28;20202;-83
2022/10/26 06:43:24;;;;;;;5.67;2.70;;;;;;;-144.59;100.00;63158.22;5088830;28;20219;-83
2022/10/26 06:46:03;;;;;;;7.13;2.90;;;;;;;-144.59;100.00;63158.22;5086681;28;20638;-84
2022/10/26 06:48:41;;;;;;;6.73;3.70;;;;;;;-144.59;100.00;63158.22;5083025;28;20200;-83
2022/10/26 06:51:16;;;;;;;7.87;3.70;;;;;;;-144.59;100.00;63158.22;5024810;28;20202;-83
2022/10/26 06:53:55;;;;;;;7.20;4.10;;;;;;;-144.59;100.00;63158.22;5022803;28;20315;-83
2022/10/26 06:56:24;;;;;;;7.33;4.20;;;;;;;-144.59;100.00;63158.22;5023870;28;20202;-83
2022/10/26 06:59:02;;;;;;;5.90;4.10;;;;;;;-144.59;100.00;63158.22;5024816;28;20193;-83
2022/10/26 07:01:35;;;;;;;8.13;4.07;;;;;;;-144.59;100.00;63158.22;5028467;28;20232;-83
2022/10/26 07:04:04;;;;;;;5.07;3.53;;;;;;;-144.59;100.00;63158.22;4995778;28;20214;-83
2022/10/26 07:06:34;;;;;;;13.03;4.13;;;;;;;-144.59;100.00;63158.22;5024235;28;20221;-83
2022/10/26 07:09:06;;;;;;;8.70;3.90;;;;;;;-144.59;100.00;63158.22;4982839;28;20425;-83
2022/10/26 07:11:35;;;;;;;12.27;4.57;;;;;;;-144.59;100.00;63158.22;4948670;29;20227;-82
2022/10/26 07:14:05;;;;;;;11.23;4.60;;;;;;;-144.59;100.00;63158.22;4939505;29;20463;-83
2022/10/26 07:16:36;;;;;;;7.33;4.73;;;;;;;-144.59;100.00;63158.22;4914911;29;20216;-83
2022/10/26 07:19:05;;;;;;;9.93;5.20;;;;;;;-144.59;100.00;63158.22;4949205;29;20213;-83
2022/10/26 07:21:34;;;;;;;8.70;5.10;;;;;;;-144.59;100.00;63158.22;4946502;28;20215;-83
2022/10/26 07:24:03;;;;;;;7.40;4.53;;;;;;;-144.59;100.00;63158.22;4987834;28;20287;-83
2022/10/26 07:26:32;;;;;;;13.47;4.83;;;;;;;-144.59;100.00;63158.22;4984198;28;20261;-83
2022/10/26 07:29:01;;;;;;;7.00;3.90;;;;;;;-144.59;100.00;63158.22;4994539;28;20201;-83
2022/10/26 07:31:31;;;;;;;9.80;4.10;;;;;;;-144.59;100.00;63158.22;5034649;28;20201;-83
2022/10/26 07:33:59;;;;;;;8.10;4.10;;;;;;;-144.59;100.00;63158.22;5066655;28;20246;-83
2022/10/26 07:36:32;;;;;;;7.23;3.47;;;;;;;-144.59;100.00;63158.22;5066661;28;20216;-83
2022/10/26 07:39:01;;;;;;;11.03;3.20;;;;;;;-144.59;100.00;63158.22;5069586;28;20274;-83
2022/10/26 07:41:31;;;;;;;7.07;3.10;;;;;;;-144.59;100.00;63158.22;5068533;28;20204;-83
2022/10/26 07:43:59;;;;;;;9.40;3.33;;;;;;;-144.59;100.00;63158.22;5069579;28;20214;-83
2022/10/26 07:46:28;;;;;;;6.73;3.73;;;;;;;-144.59;100.00;63158.22;5067283;28;20204;-83
2022/10/26 07:48:58;;;;;;;9.67;3.07;;;;;;;-144.59;100.00;63158.22;5067359;28;20292;-83
2022/10/26 07:51:28;;;;;;;6.03;3.10;;;;;;;-144.59;100.00;63158.22;5064210;28;20195;-83
2022/10/26 07:53:56;;;;;;;9.20;3.70;;;;;;;-144.59;100.00;63158.22;4966866;28;20223;-83
2022/10/26 07:56:25;;;;;;;7.90;3.50;;;;;;;-144.59;100.00;63158.22;4965621;28;20255;-82
2022/10/26 07:58:55;;;;;;;9.57;4.03;;;;;;;-144.59;100.00;63158.22;4965501;28;20227;-83
2022/10/26 08:01:25;;;;;;;9.90;4.23;;;;;;;-144.59;100.00;63158.22;4972938;28;20196;-83
2022/10/26 08:03:55;;;;;;;6.83;3.40;;;;;;;-144.59;100.00;63158.22;4968788;28;20231;-82
2022/10/26 08:06:25;;;;;;;11.70;4.40;;;;;;;-144.59;100.00;63158.22;4971991;28;20188;-83
2022/10/26 08:08:54;;;;;;;13.57;3.63;;;;;;;-144.59;100.00;63158.22;4971856;28;20196;-83
2022/10/26 08:11:22;;;;;;;10.13;3.43;;;;;;;-144.59;100.00;63158.22;4963985;28;20192;-83
2022/10/26 08:13:52;;;;;;;8.07;2.93;;;;;;;-144.59;100.00;63158.22;4970471;28;20188;-82
2022/10/26 08:16:24;;;;;;;6.20;3.00;;;;;;;-144.59;100.00;63158.22;4971677;28;20207;-83
2022/10/26 08:18:52;;;;;;;6.97;2.60;;;;;;;-144.59;100.00;63158.22;5027748;28;20188;-83
2022/10/26 08:21:21;;;;;;;7.10;2.43;;;;;;;-144.59;100.00;63158.22;5063372;28;20236;-83
2022/10/26 08:24:09;;;;;;;7.60;2.77;;;;;;;-144.59;100.00;63158.22;5070708;28;20216;-83
2022/10/26 08:26:37;;;;;;;7.33;2.80;;;;;;;-144.59;100.00;63158.22;5067359;28;20211;-83
2022/10/26 08:29:06;;;;;;;6.07;2.10;;;;;;;-144.59;100.00;63158.22;5020050;28;20193;-83
2022/10/26 08:31:34;;;;;;;7.07;2.17;;;;;;;-144.59;100.00;63158.22;5065567;28;20204;-83
2022/10/26 08:34:03;;;;;;;6.93;2.40;;;;;;;-144.59;100.00;63158.22;5023668;28;20215;-83
2022/10/26 08:36:31;;;;;;;3.60;2.07;;;;;;;-144.59;100.00;63158.22;5071823;28;20670;-83
2022/10/26 08:38:59;;;;;;;9.50;2.60;;;;;;;-144.59;100.00;63158.22;5074420;28;20226;-83
2022/10/26 08:41:36;;;;;;;5.20;2.30;;;;;;;-144.59;100.00;63158.22;5063458;28;20200;-83
2022/10/26 08:44:16;;;;;;;4.87;2.07;;;;;;;-144.59;100.00;63158.22;5069578;28;20540;-83
2022/10/26 08:46:49;;;;;;;6.23;2.90;;;;;;;-144.59;100.00;63158.22;5064640;28;20192;-83
2022/10/26 08:49:23;;;;;;;8.57;2.90;;;;;;;-144.59;100.00;63158.22;5071565;28;20199;-83
2022/10/26 08:52:00;;;;;;;8.67;3.20;;;;;;;-144.59;100.00;63158.22;5071058;28;20192;-84
2022/10/26 08:54:37;;;;;;;5.10;2.73;;;;;;;-144.59;100.00;63158.22;5069544;28;20193;-84
2022/10/26 08:57:14;;;;;;;5.13;2.97;;;;;;;-144.59;100.00;63158.22;5070597;28;20195;-84
2022/10/26 08:59:50;;;;;;;6.30;2.80;;;;;;;-144.59;100.00;63158.22;5069067;28;20202;-84
2022/10/26 09:02:18;;;;;;;7.27;2.40;;;;;;;-144.59;100.00;63158.22;4991721;28;20202;-83
2022/10/26 09:04:47;;;;;;;7.90;2.50;;;;;;;-144.59;100.00;63158.22;4987710;28;20273;-83
2022/10/26 09:07:33;;;;;;;6.43;2.80;;;;;;;-144.59;100.00;63158.22;4984330;28;20224;-83
2022/10/26 09:10:16;;;;;;;4.67;2.60;;;;;;;-144.59;100.00;63158.22;4934793;29;20224;-83
2022/10/26 09:12:52;;;;;;;5.60;3.00;;;;;;;-144.59;100.00;63158.22;4931174;29;20205;-83
2022/10/26 09:15:28;;;;;;;6.77;3.10;;;;;;;-144.59;100.00;63158.22;4932046;29;20228;-83
2022/10/26 09:18:06;;;;;;;6.53;2.70;;;;;;;-144.59;100.00;63158.22;4931470;29;20204;-83
2022/10/26 09:20:54;;;;;;;4.23;2.67;;;;;;;-144.59;100.00;63158.22;4926415;29;20275;-83
2022/10/26 09:23:40;;;;;;;6.30;3.37;;;;;;;-144.59;100.00;63158.22;4914540;29;20202;-83
2022/10/26 09:26:14;;;;;;;11.73;3.20;;;;;;;-144.59;100.00;63158.22;4924891;28;20219;-83
2022/10/26 09:28:48;;;;;;;7.43;3.00;;;;;;;-144.59;100.00;63158.22;5001478;28;20244;-83
2022/10/26 09:31:18;;;;;;;8.10;3.13;;;;;;;-144.59;100.00;63158.22;5003944;28;20195;-83
2022/10/26 09:33:47;;;;;;;7.03;3.10;;;;;;;-144.59;100.00;63158.22;5005338;28;20202;-83
2022/10/26 09:36:20;;;;;;;7.80;3.00;;;;;;;-144.59;100.00;63158.22;5010203;28;20198;-84
2022/10/26 09:38:55;;;;;;;7.77;3.37;;;;;;;-144.59;100.00;63158.22;5006360;28;20194;-84
2022/10/26 09:41:30;;;;;;;10.00;3.70;;;;;;;-144.59;100.00;63158.22;5021492;28;20231;-83
2022/10/26 09:44:09;;;;;;;9.23;3.67;;;;;;;-144.59;100.00;63158.22;5041638;28;20196;-83
2022/10/26 09:47:01;;;;;;;6.53;3.23;;;;;;;-144.59;100.00;63158.22;5045447;28;20217;-84
2022/10/26 09:49:40;;;;;;;6.90;3.20;;;;;;;-144.59;100.00;63158.22;4987444;28;20199;-84
2022/10/26 09:52:09;;;;;;;11.77;3.33;;;;;;;-144.59;100.00;63158.22;4963451;28;20231;-84
2022/10/26 09:54:41;;;;;;;8.20;3.20;;;;;;;-144.59;100.00;63158.22;4969753;28;20207;-83
2022/10/26 09:57:13;;;;;;;5.77;3.50;;;;;;;-144.59;100.00;63158.22;4966238;28;20200;-83
2022/10/26 09:59:46;;;;;;;10.13;3.83;;;;;;;-144.59;100.00;63158.22;4898705;29;20206;-83
2022/10/26 10:02:35;;;;;;;5.77;3.27;;;;;;;-144.59;100.00;63158.22;4887592;29;20206;-83
2022/10/26 10:05:22;;;;;;;8.37;3.77;;;;;;;-144.59;100.00;63158.22;4894885;29;20214;-84
2022/10/26 10:08:16;;;;;;;9.07;3.50;;;;;;;-144.59;100.00;63158.22;4923403;29;20304;-83
2022/10/26 10:10:59;;;;;;;8.47;3.80;;;;;;;-144.59;100.00;63158.22;4953920;28;20294;-84
2022/10/26 10:13:31;;;;;;;11.03;3.77;;;;;;;-144.59;100.00;63158.22;4968272;28;20192;-84
2022/10/26 10:16:06;;;;;;;7.83;4.17;;;;;;;-144.59;100.00;63158.22;4969937;28;20710;-84
2022/10/26 10:18:39;;;;;;;9.47;4.17;;;;;;;-144.59;100.00;63158.22;5029434;28;20656;-83
2022/10/26 10:21:09;;;;;;;8.53;4.40;;;;;;;-144.59;100.00;63158.22;4997404;28;20276;-84
2022/10/26 10:23:50;;;;;;;6.77;3.83;;;;;;;-144.59;100.00;63158.22;5021636;28;20243;-83
2022/10/26 10:26:19;;;;;;;10.97;4.40;;;;;;;-144.59;100.00;63158.22;5028930;28;20688;-83
2022/10/26 10:28:58;;;;;;;7.93;4.90;;;;;;;-144.59;100.00;63158.22;5024101;28;20201;-83
2022/10/26 10:31:32;;;;;;;9.63;4.80;;;;;;;-144.59;100.00;63158.22;5026422;28;20205;-83
2022/10/26 10:34:16;;;;;;;11.67;5.97;;;;;;;-144.59;100.00;63158.22;5022490;28;20328;-83
2022/10/26 10:36:51;;;;;;;10.30;5.30;;;;;;;-144.59;100.00;63158.22;5026906;28;20201;-83
2022/10/26 10:39:37;;;;;;;11.63;5.20;;;;;;;-144.59;100.00;63158.22;5022233;28;20198;-83
2022/10/26 10:42:20;;;;;;;10.50;5.40;;;;;;;-144.59;100.00;63158.22;5021870;28;20202;-84
2022/10/26 10:44:56;;;;;;;10.93;5.47;;;;;;;-144.59;100.00;63158.22;5032562;28;20216;-84
2022/10/26 10:47:36;;;;;;;9.30;5.30;;;;;;;-144.59;100.00;63158.22;5066716;28;20192;-84
2022/10/26 10:50:15;;;;;;;7.17;5.27;;;;;;;-144.59;100.00;63158.22;5062780;28;20644;-84
2022/10/26 10:52:44;;;;;;;7.87;5.40;;;;;;;-144.59;100.00;63158.22;5069858;28;20238;-85
2022/10/26 10:55:22;;;;;;;12.57;5.63;;;;;;;-144.59;100.00;63158.22;5026965;28;20202;-83
2022/10/26 10:58:08;;;;;;;11.60;5.43;;;;;;;-144.59;100.00;63158.22;5025271;28;20201;-83
2022/10/26 11:00:38;;;;;;;8.03;4.97;;;;;;;-144.59;100.00;63158.22;5025588;28;20197;-83
2022/10/26 11:03:33;;;;;;;9.43;5.33;;;;;;;-144.59;100.00;63158.22;5028946;28;20546;-83
2022/10/26 11:06:12;;;;;;;8.47;5.70;;;;;;;-144.59;100.00;63158.22;5029470;28;20209;-84
2022/10/26 11:08:49;;;;;;;11.50;6.20;;;;;;;-144.59;100.00;63158.22;5031640;28;20272;-84
2022/10/26 11:11:20;;;;;;;17.87;6.90;;;;;;;-144.59;100.00;63158.22;5027923;28;20186;-83
2022/10/26 11:13:55;;;;;;;45.03;11.23;;;;;;;-144.59;100.00;63158.22;5028977;28;20197;-83
2022/10/26 11:16:28;;;;;;;12.80;5.70;;;;;;;-144.59;100.00;63158.22;5030567;28;20684;-84
2022/10/26 11:19:05;;;;;;;9.77;5.77;;;;;;;-144.59;100.00;63158.22;5032716;28;20198;-84
2022/10/26 11:21:38;;;;;;;10.30;6.20;;;;;;;-144.59;100.00;63158.22;5065754;28;20220;-84
2022/10/26 11:24:15;;;;;;;10.60;6.43;;;;;;;-144.59;100.00;63158.22;5070523;28;20247;-83
2022/10/26 11:26:51;;;;;;;18.77;6.70;;;;;;;-144.59;100.00;63158.22;5063083;28;20220;-83
2022/10/26 11:29:27;;;;;;;12.47;6.20;;;;;;;-144.59;100.00;63158.22;5023869;28;20261;-84
2022/10/26 11:32:04;;;;;;;13.07;6.33;;;;;;;-144.59;100.00;63158.22;5028297;28;20190;-83
2022/10/26 11:34:39;;;;;;;10.37;5.67;;;;;;;-144.59;100.00;63158.22;5030095;28;20212;-84
2022/10/26 11:37:17;;;;;;;13.03;6.13;;;;;;;-144.59;100.00;63158.22;5031515;28;20208;-84
2022/10/26 11:40:02;;;;;;;12.07;6.63;;;;;;;-144.59;100.00;63158.22;5026458;28;20213;-83
2022/10/26 11:42:37;;;;;;;9.80;6.40;;;;;;;-144.59;100.00;63158.22;4951626;28;20201;-83